TFM - Tactical Decision Aid
ID: Runway Winds: CIG/VIS Threshold:

KHOB - Hobbs Arpt, NM, US

Updated at: 0222 UTC 12 May 2021
Latest TAF at: 0127 UTC 12 May 2021

TAF Board

Time0215Z 12/03Z 12/04Z 12/05Z 12/06Z 12/07Z 12/08Z 12/09Z 12/10Z 12/11Z 12/12Z 12/13Z 12/14Z 12/15Z>>
Type OBS PRVL PRVL PRVL PRVL PRVL PRVL PRVL PRVL PRVL PRVL PRVL PRVL PRVL
VIS 10 >6 >6 >6 >6 >6 >6 >6 >6 >6 >6 >6 >6 >6
CIG 9 8 8 8 8 8 8 8 8 8 8 8 8 8
Cover OVC OVC OVC OVC OVC OVC OVC OVC OVC OVC OVC OVC OVC OVC
FltCat IFR IFR IFR IFR IFR IFR IFR IFR IFR IFR IFR IFR IFR IFR
WX -- -- -- -- -- -- -- -- -- -- -- -- -- --
WDir 60 50 50 50 50 50 50 50 50 50 50 50 50 50
WSpd 14 11 11 11 11 11 11 11 11 11 11 11 11 11
WGst -- -- -- -- -- -- -- -- -- -- -- -- -- --

TDA Impact Legend

  None Marginal Slight Moderate High
Visibility (sm) >5 3≤X≤5 2≤X<3 0.5≤X<2 <0.5
Ceiling (100 ft) >30 10≤X≤30 6≤X<10 2≤X<6 <2
Wind Speed (kt) <15 15≤X<25 25≤X<30 ≥30
Wind Gust (kt) <15 15≤X<25 25≤X<35 ≥35
Weather No Wx Reported VCTS -TS,-FZRA TS,FZRA +TS,+FZRA
TAF
KHOB 120127Z 1201/1224 05011KT P6SM OVC008
  TEMPO 1201/1203 5SM BR
  FM121900 06007KT P6SM BKN025


METAR
KHOB 120215Z AUTO 06014KT 10SM OVC009 12/10 A3012 RMK AO2
KHOB 120155Z AUTO 06016G21KT 9SM OVC007 12/10 A3011 RMK AO2
KHOB 120135Z AUTO 06014G20KT 5SM BR BKN008 OVC013 12/10 A3010 RMK AO2
KHOB 120115Z AUTO 06015KT 5SM BR OVC009 12/10 A3009 RMK AO2
KHOB 120055Z AUTO 06016KT 8SM OVC008 12/11 A3008 RMK AO2
KHOB 120035Z AUTO 05017G23KT 7SM OVC008 13/11 A3007 RMK AO2
KHOB 120015Z AUTO 06019KT 10SM OVC009 13/11 A3007 RMK AO2
KHOB 112350Z 06018G23KT 10SM OVC007 13/11 A3006
KHOB 112330Z 10SM BKN008 OVC014 14/12 A3006

Radar Display
Forecast Discussion